Arletta, Washington
Current Conditions -  °F | °C
As of 4:00 PM on Thursday 27 Nov 2014 (Local Time) from KTIW Reporting Station
Overcast Overcast  
Wind Chill: 54°   Ceiling: 4200
Heat Index: 54°   Visibility: 10mi
Dew Point: 50°   Wind: 17mph
Humidity: 86%   Direction: 180°S
Pressure: 29.79"   Gusts: NA
Location:  47.2986°N, 122.616°W
Report Text: KTIW 280000Z 18015KT 10SM SCT012 BKN042 OVC060 12/10 A2979 RMK AO2 T01220100 $
Loading
Personal Weather Stations






























Interactive Weather Map New forecast layout! Learn more

10-Day Weather Forecast

Advertisements
Track Severe Weather on mobile